This is the latest recevied weather packets stored in our database for station/object HB9TJM-8. If no packets are shown the sender has not sent any weather packets the latest 10 day(s).
| Time | Temp. | Humidity | Pressure | Rain* | Wind** | Luminosity | Snow |
|---|---|---|---|---|---|---|---|
| 1777390576 | 13.89° C | 68% | 1015.9 hPa | 0 mm | - | 206 W/m² | - |
| 1777390269 | 13.89° C | 67% | 1016 hPa | 0.25 mm | - | 157 W/m² | - |
| 1777390269 | 13.89° C | 67% | 1016 hPa | 0.25 mm | - | 157 W/m² | - |
| 1777389962 | 13.89° C | 67% | 1016.5 hPa | 0.25 mm | - | 122 W/m² | - |
| 1777389962 | 13.89° C | 67% | 1016.5 hPa | 0.25 mm | - | 122 W/m² | - |
| 1777389347 | 13.89° C | 68% | 1016 hPa | 0.25 mm | - | 111 W/m² | - |
| 1777389347 | 13.89° C | 68% | 1016 hPa | 0.25 mm | - | 111 W/m² | - |
| 1777389040 | 13.89° C | 66% | 1016.1 hPa | 0.25 mm | - | 188 W/m² | - |
| 1777388425 | 13.89° C | 64% | 1016 hPa | 0.51 mm | - | 144 W/m² | - |
| 1777388425 | 13.89° C | 64% | 1016 hPa | 0.51 mm | - | 144 W/m² | - |
| 1777388118 | 14.44° C | 64% | 1015.6 hPa | 0.51 mm | - | 198 W/m² | - |
| 1777387810 | 14.44° C | 64% | 1015.6 hPa | 0.51 mm | - | 208 W/m² | - |
| 1777386888 | 13.89° C | 64% | 1015.8 hPa | 0.25 mm | - | 182 W/m² | - |
| 1777386581 | 13.89° C | 63% | 1016.1 hPa | 0.25 mm | - | 144 W/m² | - |
| 1777386581 | 13.89° C | 63% | 1016.1 hPa | 0.25 mm | - | 144 W/m² | - |
| 1777385966 | 13.89° C | 67% | 1015.9 hPa | 0.25 mm | - | 194 W/m² | - |
| 1777385965 | 13.89° C | 67% | 1015.9 hPa | 0.25 mm | - | 194 W/m² | - |
| 1777385658 | 13.89° C | 63% | 1016.2 hPa | 0.25 mm | - | 164 W/m² | - |
| 1777385044 | 13.89° C | 62% | 1015.8 hPa | 0.25 mm | - | 181 W/m² | - |
| 1777383201 | 13.89° C | 63% | 1016.2 hPa | 0.25 mm | - | 136 W/m² | - |
| 1777382894 | 13.89° C | 60% | 1016.1 hPa | 0 mm | - | 162 W/m² | - |
| 1777382587 | 13.89° C | 64% | 1016.2 hPa | 0.25 mm | - | 198 W/m² | - |
| 1777380744 | 13.89° C | 64% | 1016.1 hPa | 0.51 mm | - | 168 W/m² | - |
| 1777379515 | 13.33° C | 70% | 1015.6 hPa | 0.51 mm | - | 265 W/m² | - |
| 1777379208 | 13.33° C | 70% | 1015.7 hPa | 0.51 mm | - | 231 W/m² | - |
* Rain latest hour (hover to see other rain measurements)
** Current wind speed in m/s (hover to see current wind gust speed)